sensor_id;sensor_type;location;lat;lon;timestamp;P1;durP1;ratioP1;P2;durP2;ratioP2
28958;SDS011;16066;0.000;0.000;2023-04-24T00:01:53;5.90;;;4.93;;
28958;SDS011;16066;0.000;0.000;2023-04-24T00:04:19;5.90;;;4.30;;
28958;SDS011;16066;0.000;0.000;2023-04-24T00:06:45;6.40;;;4.63;;
28958;SDS011;16066;0.000;0.000;2023-04-24T00:09:14;5.30;;;4.00;;
28958;SDS011;16066;0.000;0.000;2023-04-24T00:11:40;6.60;;;4.50;;
28958;SDS011;16066;0.000;0.000;2023-04-24T00:14:06;5.27;;;4.00;;
28958;SDS011;16066;0.000;0.000;2023-04-24T00:16:31;7.77;;;5.10;;
28958;SDS011;16066;0.000;0.000;2023-04-24T00:18:57;6.63;;;4.73;;
28958;SDS011;16066;0.000;0.000;2023-04-24T00:21:23;5.10;;;3.87;;
28958;SDS011;16066;0.000;0.000;2023-04-24T00:23:50;5.00;;;4.00;;
28958;SDS011;16066;0.000;0.000;2023-04-24T00:26:16;5.60;;;4.40;;
28958;SDS011;16066;0.000;0.000;2023-04-24T00:28:41;5.80;;;4.00;;
28958;SDS011;16066;0.000;0.000;2023-04-24T00:31:07;7.83;;;4.03;;
28958;SDS011;16066;0.000;0.000;2023-04-24T00:33:33;6.33;;;4.40;;
28958;SDS011;16066;0.000;0.000;2023-04-24T00:35:58;5.53;;;3.90;;
28958;SDS011;16066;0.000;0.000;2023-04-24T00:38:24;4.77;;;3.90;;
28958;SDS011;16066;0.000;0.000;2023-04-24T00:40:50;6.43;;;3.77;;
28958;SDS011;16066;0.000;0.000;2023-04-24T00:43:15;6.17;;;3.87;;
28958;SDS011;16066;0.000;0.000;2023-04-24T00:45:41;4.70;;;4.07;;
28958;SDS011;16066;0.000;0.000;2023-04-24T00:48:08;5.13;;;3.70;;
28958;SDS011;16066;0.000;0.000;2023-04-24T00:50:35;4.67;;;3.53;;
28958;SDS011;16066;0.000;0.000;2023-04-24T00:53:01;5.03;;;3.60;;
28958;SDS011;16066;0.000;0.000;2023-04-24T00:55:26;4.93;;;3.73;;
28958;SDS011;16066;0.000;0.000;2023-04-24T00:57:52;4.40;;;3.60;;
28958;SDS011;16066;0.000;0.000;2023-04-24T01:00:18;4.03;;;3.17;;
28958;SDS011;16066;0.000;0.000;2023-04-24T01:02:44;6.57;;;4.60;;
28958;SDS011;16066;0.000;0.000;2023-04-24T01:05:11;5.23;;;3.47;;
28958;SDS011;16066;0.000;0.000;2023-04-24T01:07:38;4.13;;;3.50;;
28958;SDS011;16066;0.000;0.000;2023-04-24T01:10:05;8.37;;;3.20;;
28958;SDS011;16066;0.000;0.000;2023-04-24T01:12:33;5.10;;;3.87;;
28958;SDS011;16066;0.000;0.000;2023-04-24T01:14:58;4.80;;;3.73;;
28958;SDS011;16066;0.000;0.000;2023-04-24T01:17:24;5.23;;;3.87;;
28958;SDS011;16066;0.000;0.000;2023-04-24T01:19:50;6.43;;;3.60;;
28958;SDS011;16066;0.000;0.000;2023-04-24T01:22:18;5.40;;;3.50;;
28958;SDS011;16066;0.000;0.000;2023-04-24T01:24:45;5.77;;;4.37;;
28958;SDS011;16066;0.000;0.000;2023-04-24T01:27:11;4.77;;;3.90;;
28958;SDS011;16066;0.000;0.000;2023-04-24T01:29:37;5.90;;;3.57;;
28958;SDS011;16066;0.000;0.000;2023-04-24T01:32:03;4.90;;;3.73;;
28958;SDS011;16066;0.000;0.000;2023-04-24T01:34:29;4.77;;;3.63;;
28958;SDS011;16066;0.000;0.000;2023-04-24T01:36:55;4.50;;;3.57;;
28958;SDS011;16066;0.000;0.000;2023-04-24T01:39:21;5.50;;;3.40;;
28958;SDS011;16066;0.000;0.000;2023-04-24T01:41:48;4.70;;;3.53;;
28958;SDS011;16066;0.000;0.000;2023-04-24T01:44:15;4.40;;;3.37;;
28958;SDS011;16066;0.000;0.000;2023-04-24T01:46:41;5.47;;;3.87;;
28958;SDS011;16066;0.000;0.000;2023-04-24T01:49:06;4.50;;;3.30;;
28958;SDS011;16066;0.000;0.000;2023-04-24T01:51:32;4.57;;;3.43;;
28958;SDS011;16066;0.000;0.000;2023-04-24T01:53:57;3.83;;;3.27;;
28958;SDS011;16066;0.000;0.000;2023-04-24T01:56:23;4.30;;;3.40;;
28958;SDS011;16066;0.000;0.000;2023-04-24T01:58:50;4.43;;;3.80;;
28958;SDS011;16066;0.000;0.000;2023-04-24T02:01:19;4.93;;;3.60;;
28958;SDS011;16066;0.000;0.000;2023-04-24T02:03:45;3.83;;;3.13;;
28958;SDS011;16066;0.000;0.000;2023-04-24T02:06:10;6.20;;;3.73;;
28958;SDS011;16066;0.000;0.000;2023-04-24T02:08:36;5.43;;;4.03;;
28958;SDS011;16066;0.000;0.000;2023-04-24T02:11:01;6.23;;;3.43;;
28958;SDS011;16066;0.000;0.000;2023-04-24T02:13:27;4.77;;;3.33;;
28958;SDS011;16066;0.000;0.000;2023-04-24T02:15:53;4.87;;;3.70;;
28958;SDS011;16066;0.000;0.000;2023-04-24T02:18:19;4.17;;;3.17;;
28958;SDS011;16066;0.000;0.000;2023-04-24T02:20:44;4.60;;;3.43;;
28958;SDS011;16066;0.000;0.000;2023-04-24T02:23:10;4.80;;;4.00;;
28958;SDS011;16066;0.000;0.000;2023-04-24T02:25:36;4.37;;;3.17;;
28958;SDS011;16066;0.000;0.000;2023-04-24T02:28:01;6.63;;;3.90;;
28958;SDS011;16066;0.000;0.000;2023-04-24T02:30:27;5.07;;;4.10;;
28958;SDS011;16066;0.000;0.000;2023-04-24T02:32:53;3.67;;;3.17;;
28958;SDS011;16066;0.000;0.000;2023-04-24T02:35:19;4.30;;;3.43;;
28958;SDS011;16066;0.000;0.000;2023-04-24T02:37:44;4.23;;;3.60;;
28958;SDS011;16066;0.000;0.000;2023-04-24T02:40:10;4.53;;;3.63;;
28958;SDS011;16066;0.000;0.000;2023-04-24T02:42:36;5.37;;;3.90;;
28958;SDS011;16066;0.000;0.000;2023-04-24T02:45:01;4.77;;;3.50;;
28958;SDS011;16066;0.000;0.000;2023-04-24T02:47:27;3.90;;;2.87;;
28958;SDS011;16066;0.000;0.000;2023-04-24T02:49:52;4.23;;;3.43;;
28958;SDS011;16066;0.000;0.000;2023-04-24T02:52:18;4.57;;;3.37;;
28958;SDS011;16066;0.000;0.000;2023-04-24T02:54:44;4.93;;;3.37;;
28958;SDS011;16066;0.000;0.000;2023-04-24T02:57:09;5.00;;;3.73;;
28958;SDS011;16066;0.000;0.000;2023-04-24T02:59:35;4.30;;;3.20;;
28958;SDS011;16066;0.000;0.000;2023-04-24T03:02:00;5.43;;;3.80;;
28958;SDS011;16066;0.000;0.000;2023-04-24T03:04:26;4.13;;;3.33;;
28958;SDS011;16066;0.000;0.000;2023-04-24T03:06:51;4.00;;;3.20;;
28958;SDS011;16066;0.000;0.000;2023-04-24T03:09:19;4.87;;;3.60;;
28958;SDS011;16066;0.000;0.000;2023-04-24T03:11:45;4.70;;;3.70;;
28958;SDS011;16066;0.000;0.000;2023-04-24T03:14:11;4.37;;;3.10;;
28958;SDS011;16066;0.000;0.000;2023-04-24T03:16:36;4.80;;;3.83;;
28958;SDS011;16066;0.000;0.000;2023-04-24T03:19:02;4.00;;;3.07;;
28958;SDS011;16066;0.000;0.000;2023-04-24T03:21:28;4.40;;;3.13;;
28958;SDS011;16066;0.000;0.000;2023-04-24T03:23:53;3.80;;;3.23;;
28958;SDS011;16066;0.000;0.000;2023-04-24T03:26:19;4.57;;;3.53;;
28958;SDS011;16066;0.000;0.000;2023-04-24T03:28:45;4.50;;;3.10;;
28958;SDS011;16066;0.000;0.000;2023-04-24T03:31:10;3.93;;;3.07;;
28958;SDS011;16066;0.000;0.000;2023-04-24T03:33:36;4.70;;;3.50;;
28958;SDS011;16066;0.000;0.000;2023-04-24T03:36:01;3.70;;;3.10;;
28958;SDS011;16066;0.000;0.000;2023-04-24T03:38:27;4.30;;;3.10;;
28958;SDS011;16066;0.000;0.000;2023-04-24T03:40:53;5.53;;;3.70;;
28958;SDS011;16066;0.000;0.000;2023-04-24T03:43:18;4.50;;;3.00;;
28958;SDS011;16066;0.000;0.000;2023-04-24T03:45:44;4.47;;;2.70;;
28958;SDS011;16066;0.000;0.000;2023-04-24T03:48:09;5.80;;;3.77;;
28958;SDS011;16066;0.000;0.000;2023-04-24T03:50:35;4.17;;;3.60;;
28958;SDS011;16066;0.000;0.000;2023-04-24T03:53:00;4.83;;;3.50;;
28958;SDS011;16066;0.000;0.000;2023-04-24T03:55:26;4.07;;;2.77;;
28958;SDS011;16066;0.000;0.000;2023-04-24T03:57:51;4.43;;;3.73;;
28958;SDS011;16066;0.000;0.000;2023-04-24T04:00:17;3.67;;;3.20;;
28958;SDS011;16066;0.000;0.000;2023-04-24T04:02:43;4.20;;;3.43;;
28958;SDS011;16066;0.000;0.000;2023-04-24T04:05:09;4.23;;;3.53;;
28958;SDS011;16066;0.000;0.000;2023-04-24T04:07:34;3.80;;;2.90;;
28958;SDS011;16066;0.000;0.000;2023-04-24T04:10:00;4.07;;;3.27;;
28958;SDS011;16066;0.000;0.000;2023-04-24T04:12:25;5.00;;;3.50;;
28958;SDS011;16066;0.000;0.000;2023-04-24T04:14:51;3.67;;;3.20;;
28958;SDS011;16066;0.000;0.000;2023-04-24T04:17:16;4.37;;;3.30;;
28958;SDS011;16066;0.000;0.000;2023-04-24T04:19:42;3.63;;;2.90;;
28958;SDS011;16066;0.000;0.000;2023-04-24T04:22:08;4.27;;;3.10;;
28958;SDS011;16066;0.000;0.000;2023-04-24T04:24:33;5.27;;;3.20;;
28958;SDS011;16066;0.000;0.000;2023-04-24T04:27:02;3.80;;;3.37;;
28958;SDS011;16066;0.000;0.000;2023-04-24T04:29:29;3.73;;;2.90;;
28958;SDS011;16066;0.000;0.000;2023-04-24T04:31:56;3.67;;;2.67;;
28958;SDS011;16066;0.000;0.000;2023-04-24T04:34:22;5.60;;;3.43;;
28958;SDS011;16066;0.000;0.000;2023-04-24T04:36:48;4.40;;;3.33;;
28958;SDS011;16066;0.000;0.000;2023-04-24T04:39:13;4.17;;;3.47;;
28958;SDS011;16066;0.000;0.000;2023-04-24T04:41:40;4.07;;;2.80;;
28958;SDS011;16066;0.000;0.000;2023-04-24T04:44:05;3.43;;;3.07;;
28958;SDS011;16066;0.000;0.000;2023-04-24T04:46:33;3.10;;;2.80;;
28958;SDS011;16066;0.000;0.000;2023-04-24T04:48:59;3.77;;;2.93;;
28958;SDS011;16066;0.000;0.000;2023-04-24T04:51:26;3.30;;;2.90;;
28958;SDS011;16066;0.000;0.000;2023-04-24T04:53:52;5.00;;;2.97;;
28958;SDS011;16066;0.000;0.000;2023-04-24T04:56:17;3.13;;;2.83;;
28958;SDS011;16066;0.000;0.000;2023-04-24T04:58:43;3.60;;;3.07;;
28958;SDS011;16066;0.000;0.000;2023-04-24T05:01:08;4.40;;;3.17;;
28958;SDS011;16066;0.000;0.000;2023-04-24T05:03:34;4.17;;;2.80;;
28958;SDS011;16066;0.000;0.000;2023-04-24T05:06:00;4.83;;;3.37;;
28958;SDS011;16066;0.000;0.000;2023-04-24T05:08:27;3.77;;;2.80;;
28958;SDS011;16066;0.000;0.000;2023-04-24T05:10:52;3.83;;;3.07;;
28958;SDS011;16066;0.000;0.000;2023-04-24T05:13:19;5.00;;;3.23;;
28958;SDS011;16066;0.000;0.000;2023-04-24T05:15:44;4.70;;;3.27;;
28958;SDS011;16066;0.000;0.000;2023-04-24T05:18:10;3.87;;;2.93;;
28958;SDS011;16066;0.000;0.000;2023-04-24T05:20:36;4.60;;;3.37;;
28958;SDS011;16066;0.000;0.000;2023-04-24T05:23:01;3.30;;;2.80;;
28958;SDS011;16066;0.000;0.000;2023-04-24T05:25:27;4.00;;;3.10;;
28958;SDS011;16066;0.000;0.000;2023-04-24T05:27:52;2.97;;;2.27;;
28958;SDS011;16066;0.000;0.000;2023-04-24T05:30:18;3.20;;;2.57;;
28958;SDS011;16066;0.000;0.000;2023-04-24T05:32:44;4.60;;;3.23;;
28958;SDS011;16066;0.000;0.000;2023-04-24T05:35:10;3.90;;;3.00;;
28958;SDS011;16066;0.000;0.000;2023-04-24T05:37:36;4.90;;;3.07;;
28958;SDS011;16066;0.000;0.000;2023-04-24T05:40:02;6.80;;;3.00;;
28958;SDS011;16066;0.000;0.000;2023-04-24T05:42:30;4.20;;;3.73;;
28958;SDS011;16066;0.000;0.000;2023-04-24T05:44:55;4.93;;;3.90;;
28958;SDS011;16066;0.000;0.000;2023-04-24T05:47:21;4.13;;;3.27;;
28958;SDS011;16066;0.000;0.000;2023-04-24T05:49:47;4.33;;;3.37;;
28958;SDS011;16066;0.000;0.000;2023-04-24T05:52:12;3.90;;;3.20;;
28958;SDS011;16066;0.000;0.000;2023-04-24T05:54:38;7.13;;;2.80;;
28958;SDS011;16066;0.000;0.000;2023-04-24T05:57:04;3.53;;;2.87;;
28958;SDS011;16066;0.000;0.000;2023-04-24T05:59:32;3.40;;;3.03;;
28958;SDS011;16066;0.000;0.000;2023-04-24T06:01:59;4.53;;;3.30;;
28958;SDS011;16066;0.000;0.000;2023-04-24T06:04:24;4.20;;;3.60;;
28958;SDS011;16066;0.000;0.000;2023-04-24T06:06:50;7.73;;;3.53;;
28958;SDS011;16066;0.000;0.000;2023-04-24T06:09:20;9.03;;;4.07;;
28958;SDS011;16066;0.000;0.000;2023-04-24T06:11:49;4.43;;;3.33;;
28958;SDS011;16066;0.000;0.000;2023-04-24T06:14:17;3.33;;;3.03;;
28958;SDS011;16066;0.000;0.000;2023-04-24T06:16:43;8.23;;;3.10;;
28958;SDS011;16066;0.000;0.000;2023-04-24T06:19:09;5.67;;;3.53;;
28958;SDS011;16066;0.000;0.000;2023-04-24T06:21:34;4.20;;;2.93;;
28958;SDS011;16066;0.000;0.000;2023-04-24T06:24:00;3.63;;;2.93;;
28958;SDS011;16066;0.000;0.000;2023-04-24T06:26:25;5.43;;;3.40;;
28958;SDS011;16066;0.000;0.000;2023-04-24T06:28:51;5.57;;;3.30;;
28958;SDS011;16066;0.000;0.000;2023-04-24T06:31:18;3.93;;;2.97;;
28958;SDS011;16066;0.000;0.000;2023-04-24T06:33:44;6.80;;;3.17;;
28958;SDS011;16066;0.000;0.000;2023-04-24T06:36:10;3.60;;;2.80;;
28958;SDS011;16066;0.000;0.000;2023-04-24T06:38:36;5.10;;;3.57;;
28958;SDS011;16066;0.000;0.000;2023-04-24T06:41:02;5.47;;;3.53;;
28958;SDS011;16066;0.000;0.000;2023-04-24T06:43:29;6.63;;;3.33;;
28958;SDS011;16066;0.000;0.000;2023-04-24T06:45:56;4.70;;;3.03;;
28958;SDS011;16066;0.000;0.000;2023-04-24T06:48:23;4.23;;;3.20;;
28958;SDS011;16066;0.000;0.000;2023-04-24T06:50:49;5.40;;;3.30;;
28958;SDS011;16066;0.000;0.000;2023-04-24T06:53:14;3.77;;;3.33;;
28958;SDS011;16066;0.000;0.000;2023-04-24T06:55:40;5.97;;;3.50;;
28958;SDS011;16066;0.000;0.000;2023-04-24T06:58:06;6.47;;;3.77;;
28958;SDS011;16066;0.000;0.000;2023-04-24T07:00:31;8.50;;;3.50;;
28958;SDS011;16066;0.000;0.000;2023-04-24T07:02:57;13.80;;;3.90;;
28958;SDS011;16066;0.000;0.000;2023-04-24T07:05:22;3.53;;;3.10;;
28958;SDS011;16066;0.000;0.000;2023-04-24T07:07:48;5.17;;;2.93;;
28958;SDS011;16066;0.000;0.000;2023-04-24T07:10:14;5.73;;;3.30;;
28958;SDS011;16066;0.000;0.000;2023-04-24T07:12:40;4.63;;;3.13;;
28958;SDS011;16066;0.000;0.000;2023-04-24T07:15:06;4.53;;;3.07;;
28958;SDS011;16066;0.000;0.000;2023-04-24T07:17:32;4.13;;;3.07;;
28958;SDS011;16066;0.000;0.000;2023-04-24T07:19:58;6.73;;;3.10;;
28958;SDS011;16066;0.000;0.000;2023-04-24T07:22:24;6.37;;;2.90;;
28958;SDS011;16066;0.000;0.000;2023-04-24T07:24:49;4.20;;;2.93;;
28958;SDS011;16066;0.000;0.000;2023-04-24T07:27:15;4.70;;;2.90;;
28958;SDS011;16066;0.000;0.000;2023-04-24T07:29:41;4.73;;;3.20;;
28958;SDS011;16066;0.000;0.000;2023-04-24T07:32:06;3.43;;;2.90;;
28958;SDS011;16066;0.000;0.000;2023-04-24T07:34:32;6.43;;;3.40;;
28958;SDS011;16066;0.000;0.000;2023-04-24T07:36:58;4.77;;;3.00;;
28958;SDS011;16066;0.000;0.000;2023-04-24T07:39:24;7.80;;;3.00;;
28958;SDS011;16066;0.000;0.000;2023-04-24T07:41:50;4.40;;;3.03;;
28958;SDS011;16066;0.000;0.000;2023-04-24T07:44:15;7.37;;;2.93;;
28958;SDS011;16066;0.000;0.000;2023-04-24T07:46:41;6.90;;;2.87;;
28958;SDS011;16066;0.000;0.000;2023-04-24T07:49:06;3.60;;;2.77;;
28958;SDS011;16066;0.000;0.000;2023-04-24T07:51:32;3.97;;;3.03;;
28958;SDS011;16066;0.000;0.000;2023-04-24T07:54:02;6.33;;;3.30;;
28958;SDS011;16066;0.000;0.000;2023-04-24T07:56:29;4.10;;;2.90;;
28958;SDS011;16066;0.000;0.000;2023-04-24T07:58:56;5.13;;;2.87;;
28958;SDS011;16066;0.000;0.000;2023-04-24T08:01:21;5.40;;;3.20;;
28958;SDS011;16066;0.000;0.000;2023-04-24T08:03:47;4.77;;;2.73;;
28958;SDS011;16066;0.000;0.000;2023-04-24T08:06:12;4.60;;;2.90;;
28958;SDS011;16066;0.000;0.000;2023-04-24T08:08:38;4.67;;;3.37;;
28958;SDS011;16066;0.000;0.000;2023-04-24T08:11:03;5.83;;;3.30;;
28958;SDS011;16066;0.000;0.000;2023-04-24T08:13:29;4.90;;;3.37;;
28958;SDS011;16066;0.000;0.000;2023-04-24T08:15:54;4.10;;;2.90;;
28958;SDS011;16066;0.000;0.000;2023-04-24T08:18:21;5.30;;;3.30;;
28958;SDS011;16066;0.000;0.000;2023-04-24T08:20:47;4.13;;;2.80;;
28958;SDS011;16066;0.000;0.000;2023-04-24T08:23:13;3.87;;;2.80;;
28958;SDS011;16066;0.000;0.000;2023-04-24T08:25:38;4.90;;;3.70;;
28958;SDS011;16066;0.000;0.000;2023-04-24T08:28:05;4.43;;;2.70;;
28958;SDS011;16066;0.000;0.000;2023-04-24T08:30:31;4.20;;;3.43;;
28958;SDS011;16066;0.000;0.000;2023-04-24T08:32:56;4.10;;;2.97;;
28958;SDS011;16066;0.000;0.000;2023-04-24T08:35:22;5.57;;;2.93;;
28958;SDS011;16066;0.000;0.000;2023-04-24T08:37:48;4.23;;;3.10;;
28958;SDS011;16066;0.000;0.000;2023-04-24T08:40:14;4.67;;;2.93;;
28958;SDS011;16066;0.000;0.000;2023-04-24T08:42:43;9.10;;;2.80;;
28958;SDS011;16066;0.000;0.000;2023-04-24T08:45:12;4.07;;;2.87;;
28958;SDS011;16066;0.000;0.000;2023-04-24T08:47:39;4.50;;;2.90;;
28958;SDS011;16066;0.000;0.000;2023-04-24T08:50:06;7.53;;;3.93;;
28958;SDS011;16066;0.000;0.000;2023-04-24T08:52:33;6.77;;;3.50;;
28958;SDS011;16066;0.000;0.000;2023-04-24T08:55:00;4.30;;;3.23;;
28958;SDS011;16066;0.000;0.000;2023-04-24T08:57:26;8.13;;;3.00;;
28958;SDS011;16066;0.000;0.000;2023-04-24T08:59:52;10.13;;;3.40;;
28958;SDS011;16066;0.000;0.000;2023-04-24T09:02:19;5.57;;;3.00;;
28958;SDS011;16066;0.000;0.000;2023-04-24T09:04:45;8.20;;;2.90;;
28958;SDS011;16066;0.000;0.000;2023-04-24T09:07:12;3.73;;;3.10;;
28958;SDS011;16066;0.000;0.000;2023-04-24T09:09:38;21.70;;;4.90;;
28958;SDS011;16066;0.000;0.000;2023-04-24T09:12:05;12.70;;;4.13;;
28958;SDS011;16066;0.000;0.000;2023-04-24T09:14:31;7.97;;;3.33;;
28958;SDS011;16066;0.000;0.000;2023-04-24T09:16:58;6.90;;;3.10;;
28958;SDS011;16066;0.000;0.000;2023-04-24T09:19:23;5.20;;;3.20;;
28958;SDS011;16066;0.000;0.000;2023-04-24T09:21:49;6.80;;;2.83;;
28958;SDS011;16066;0.000;0.000;2023-04-24T09:24:19;7.13;;;4.23;;
28958;SDS011;16066;0.000;0.000;2023-04-24T09:26:49;8.83;;;4.33;;
28958;SDS011;16066;0.000;0.000;2023-04-24T09:29:24;9.20;;;5.70;;
28958;SDS011;16066;0.000;0.000;2023-04-24T09:31:49;12.13;;;7.10;;
28958;SDS011;16066;0.000;0.000;2023-04-24T09:34:19;19.90;;;7.60;;
28958;SDS011;16066;0.000;0.000;2023-04-24T09:36:47;13.20;;;9.80;;
28958;SDS011;16066;0.000;0.000;2023-04-24T09:39:14;18.30;;;11.70;;
28958;SDS011;16066;0.000;0.000;2023-04-24T09:41:44;23.17;;;14.70;;
28958;SDS011;16066;0.000;0.000;2023-04-24T09:44:18;22.20;;;14.87;;
28958;SDS011;16066;0.000;0.000;2023-04-24T09:46:53;22.37;;;15.67;;
28958;SDS011;16066;0.000;0.000;2023-04-24T09:49:23;18.47;;;14.70;;
28958;SDS011;16066;0.000;0.000;2023-04-24T09:52:02;22.00;;;14.70;;
28958;SDS011;16066;0.000;0.000;2023-04-24T09:54:32;25.07;;;16.90;;
28958;SDS011;16066;0.000;0.000;2023-04-24T09:56:58;25.33;;;15.87;;
28958;SDS011;16066;0.000;0.000;2023-04-24T09:59:25;20.70;;;16.40;;
28958;SDS011;16066;0.000;0.000;2023-04-24T10:01:50;21.60;;;16.50;;
28958;SDS011;16066;0.000;0.000;2023-04-24T10:04:24;23.03;;;16.33;;
28958;SDS011;16066;0.000;0.000;2023-04-24T10:06:51;19.40;;;15.23;;
28958;SDS011;16066;0.000;0.000;2023-04-24T10:09:19;19.57;;;14.57;;
28958;SDS011;16066;0.000;0.000;2023-04-24T10:11:46;21.63;;;15.73;;
28958;SDS011;16066;0.000;0.000;2023-04-24T10:14:15;20.60;;;16.00;;
28958;SDS011;16066;0.000;0.000;2023-04-24T10:16:45;23.87;;;15.60;;
28958;SDS011;16066;0.000;0.000;2023-04-24T10:19:15;22.10;;;16.77;;
28958;SDS011;16066;0.000;0.000;2023-04-24T10:21:41;27.97;;;18.20;;
28958;SDS011;16066;0.000;0.000;2023-04-24T10:24:14;26.33;;;18.53;;
28958;SDS011;16066;0.000;0.000;2023-04-24T10:26:41;27.57;;;16.80;;
28958;SDS011;16066;0.000;0.000;2023-04-24T10:29:07;25.50;;;18.20;;
28958;SDS011;16066;0.000;0.000;2023-04-24T10:31:35;21.50;;;16.10;;
28958;SDS011;16066;0.000;0.000;2023-04-24T10:34:02;26.80;;;15.87;;
28958;SDS011;16066;0.000;0.000;2023-04-24T10:36:30;22.13;;;15.40;;
28958;SDS011;16066;0.000;0.000;2023-04-24T10:38:57;23.20;;;14.30;;
28958;SDS011;16066;0.000;0.000;2023-04-24T10:41:26;20.50;;;14.70;;
28958;SDS011;16066;0.000;0.000;2023-04-24T10:44:05;20.83;;;15.47;;
28958;SDS011;16066;0.000;0.000;2023-04-24T10:46:31;19.73;;;14.10;;
28958;SDS011;16066;0.000;0.000;2023-04-24T10:48:56;18.13;;;13.07;;
28958;SDS011;16066;0.000;0.000;2023-04-24T10:51:23;17.83;;;12.47;;
28958;SDS011;16066;0.000;0.000;2023-04-24T10:53:51;17.43;;;13.00;;
28958;SDS011;16066;0.000;0.000;2023-04-24T10:56:17;17.50;;;11.80;;
28958;SDS011;16066;0.000;0.000;2023-04-24T10:58:49;17.17;;;12.30;;
28958;SDS011;16066;0.000;0.000;2023-04-24T11:01:27;17.40;;;12.20;;
28958;SDS011;16066;0.000;0.000;2023-04-24T11:03:54;13.77;;;11.30;;
28958;SDS011;16066;0.000;0.000;2023-04-24T11:06:34;16.13;;;11.40;;
28958;SDS011;16066;0.000;0.000;2023-04-24T11:09:02;14.37;;;11.77;;
28958;SDS011;16066;0.000;0.000;2023-04-24T11:11:32;18.50;;;11.00;;
28958;SDS011;16066;0.000;0.000;2023-04-24T11:16:38;15.63;;;10.90;;
28958;SDS011;16066;0.000;0.000;2023-04-24T11:21:42;16.33;;;9.80;;
28958;SDS011;16066;0.000;0.000;2023-04-24T11:24:30;14.27;;;10.40;;
28958;SDS011;16066;0.000;0.000;2023-04-24T11:29:48;16.23;;;9.00;;
28958;SDS011;16066;0.000;0.000;2023-04-24T11:32:18;16.40;;;9.17;;
28958;SDS011;16066;0.000;0.000;2023-04-24T11:34:50;14.63;;;10.10;;
28958;SDS011;16066;0.000;0.000;2023-04-24T11:37:17;26.37;;;14.40;;
28958;SDS011;16066;0.000;0.000;2023-04-24T11:39:43;28.43;;;17.60;;
28958;SDS011;16066;0.000;0.000;2023-04-24T11:42:09;40.47;;;27.43;;
28958;SDS011;16066;0.000;0.000;2023-04-24T11:44:35;44.57;;;30.13;;
28958;SDS011;16066;0.000;0.000;2023-04-24T11:47:06;55.40;;;35.50;;
28958;SDS011;16066;0.000;0.000;2023-04-24T11:49:32;59.63;;;38.87;;
28958;SDS011;16066;0.000;0.000;2023-04-24T11:51:59;62.40;;;39.73;;
28958;SDS011;16066;0.000;0.000;2023-04-24T11:54:26;64.10;;;41.90;;
28958;SDS011;16066;0.000;0.000;2023-04-24T11:56:51;56.40;;;38.10;;
28958;SDS011;16066;0.000;0.000;2023-04-24T11:59:17;63.37;;;39.23;;
28958;SDS011;16066;0.000;0.000;2023-04-24T12:01:43;61.40;;;38.83;;
28958;SDS011;16066;0.000;0.000;2023-04-24T12:04:10;61.50;;;38.80;;
28958;SDS011;16066;0.000;0.000;2023-04-24T12:06:36;60.47;;;37.20;;
28958;SDS011;16066;0.000;0.000;2023-04-24T12:09:02;84.33;;;36.03;;
28958;SDS011;16066;0.000;0.000;2023-04-24T12:11:27;56.30;;;37.97;;
28958;SDS011;16066;0.000;0.000;2023-04-24T12:13:53;58.07;;;33.60;;
28958;SDS011;16066;0.000;0.000;2023-04-24T12:16:19;50.37;;;33.10;;
28958;SDS011;16066;0.000;0.000;2023-04-24T12:18:45;50.57;;;31.13;;
28958;SDS011;16066;0.000;0.000;2023-04-24T12:23:53;43.67;;;28.90;;
28958;SDS011;16066;0.000;0.000;2023-04-24T12:26:20;47.53;;;30.17;;
28958;SDS011;16066;0.000;0.000;2023-04-24T12:28:48;42.00;;;26.43;;
28958;SDS011;16066;0.000;0.000;2023-04-24T12:31:14;44.77;;;27.30;;
28958;SDS011;16066;0.000;0.000;2023-04-24T12:33:41;38.03;;;25.00;;
28958;SDS011;16066;0.000;0.000;2023-04-24T12:36:09;39.80;;;26.10;;
28958;SDS011;16066;0.000;0.000;2023-04-24T12:38:37;40.60;;;26.07;;
28958;SDS011;16066;0.000;0.000;2023-04-24T12:41:07;43.17;;;25.07;;
28958;SDS011;16066;0.000;0.000;2023-04-24T12:43:34;39.20;;;25.03;;
28958;SDS011;16066;0.000;0.000;2023-04-24T12:46:00;39.93;;;25.10;;
28958;SDS011;16066;0.000;0.000;2023-04-24T12:48:26;36.83;;;23.47;;
28958;SDS011;16066;0.000;0.000;2023-04-24T12:50:52;37.97;;;24.57;;
28958;SDS011;16066;0.000;0.000;2023-04-24T12:53:17;31.90;;;21.60;;
28958;SDS011;16066;0.000;0.000;2023-04-24T12:55:43;32.63;;;21.50;;
28958;SDS011;16066;0.000;0.000;2023-04-24T12:58:10;38.30;;;23.27;;
28958;SDS011;16066;0.000;0.000;2023-04-24T13:00:35;29.83;;;20.60;;
28958;SDS011;16066;0.000;0.000;2023-04-24T13:03:01;45.03;;;23.90;;
28958;SDS011;16066;0.000;0.000;2023-04-24T13:05:27;33.03;;;21.40;;
28958;SDS011;16066;0.000;0.000;2023-04-24T13:07:53;33.10;;;21.80;;
28958;SDS011;16066;0.000;0.000;2023-04-24T13:10:18;32.93;;;20.77;;
28958;SDS011;16066;0.000;0.000;2023-04-24T13:12:44;31.67;;;20.80;;
28958;SDS011;16066;0.000;0.000;2023-04-24T13:15:11;26.50;;;19.60;;
28958;SDS011;16066;0.000;0.000;2023-04-24T13:17:36;25.80;;;17.60;;
28958;SDS011;16066;0.000;0.000;2023-04-24T13:20:02;29.50;;;19.10;;
28958;SDS011;16066;0.000;0.000;2023-04-24T13:22:28;28.20;;;18.83;;
28958;SDS011;16066;0.000;0.000;2023-04-24T13:24:53;26.97;;;18.13;;
28958;SDS011;16066;0.000;0.000;2023-04-24T13:27:19;29.73;;;19.50;;
28958;SDS011;16066;0.000;0.000;2023-04-24T13:29:45;28.33;;;19.70;;
28958;SDS011;16066;0.000;0.000;2023-04-24T13:32:10;24.10;;;17.07;;
28958;SDS011;16066;0.000;0.000;2023-04-24T13:34:36;24.03;;;17.50;;
28958;SDS011;16066;0.000;0.000;2023-04-24T13:37:02;26.90;;;18.60;;
28958;SDS011;16066;0.000;0.000;2023-04-24T13:39:32;27.17;;;17.67;;
28958;SDS011;16066;0.000;0.000;2023-04-24T13:41:58;24.17;;;16.40;;
28958;SDS011;16066;0.000;0.000;2023-04-24T13:44:24;27.47;;;18.10;;
28958;SDS011;16066;0.000;0.000;2023-04-24T13:46:50;23.20;;;16.70;;
28958;SDS011;16066;0.000;0.000;2023-04-24T13:49:19;22.60;;;15.90;;
28958;SDS011;16066;0.000;0.000;2023-04-24T13:51:45;25.30;;;17.40;;
28958;SDS011;16066;0.000;0.000;2023-04-24T13:54:11;28.63;;;16.73;;
28958;SDS011;16066;0.000;0.000;2023-04-24T13:56:37;21.43;;;15.17;;
28958;SDS011;16066;0.000;0.000;2023-04-24T13:59:03;23.10;;;14.70;;
28958;SDS011;16066;0.000;0.000;2023-04-24T14:01:29;20.73;;;13.60;;
28958;SDS011;16066;0.000;0.000;2023-04-24T14:03:55;23.70;;;14.60;;
28958;SDS011;16066;0.000;0.000;2023-04-24T14:06:21;22.13;;;14.77;;
28958;SDS011;16066;0.000;0.000;2023-04-24T14:08:48;23.13;;;14.67;;
28958;SDS011;16066;0.000;0.000;2023-04-24T14:11:14;20.80;;;13.77;;
28958;SDS011;16066;0.000;0.000;2023-04-24T14:13:40;21.00;;;13.43;;
28958;SDS011;16066;0.000;0.000;2023-04-24T14:16:06;19.33;;;12.63;;
28958;SDS011;16066;0.000;0.000;2023-04-24T14:18:32;17.27;;;13.00;;
28958;SDS011;16066;0.000;0.000;2023-04-24T14:20:57;18.70;;;12.53;;
28958;SDS011;16066;0.000;0.000;2023-04-24T14:23:24;16.37;;;11.70;;
28958;SDS011;16066;0.000;0.000;2023-04-24T14:25:49;17.70;;;11.83;;
28958;SDS011;16066;0.000;0.000;2023-04-24T14:28:17;16.30;;;12.07;;
28958;SDS011;16066;0.000;0.000;2023-04-24T14:30:43;19.00;;;13.40;;
28958;SDS011;16066;0.000;0.000;2023-04-24T14:33:09;18.03;;;11.83;;
28958;SDS011;16066;0.000;0.000;2023-04-24T14:35:35;17.80;;;12.03;;
28958;SDS011;16066;0.000;0.000;2023-04-24T14:38:01;16.97;;;11.87;;
28958;SDS011;16066;0.000;0.000;2023-04-24T14:40:27;17.53;;;11.67;;
28958;SDS011;16066;0.000;0.000;2023-04-24T14:42:52;15.63;;;11.50;;
28958;SDS011;16066;0.000;0.000;2023-04-24T14:45:18;14.40;;;10.40;;
28958;SDS011;16066;0.000;0.000;2023-04-24T14:47:44;17.47;;;11.10;;
28958;SDS011;16066;0.000;0.000;2023-04-24T14:50:10;21.33;;;11.03;;
28958;SDS011;16066;0.000;0.000;2023-04-24T14:52:37;15.30;;;10.33;;
28958;SDS011;16066;0.000;0.000;2023-04-24T14:55:03;13.60;;;10.10;;
28958;SDS011;16066;0.000;0.000;2023-04-24T14:57:28;15.27;;;10.00;;
28958;SDS011;16066;0.000;0.000;2023-04-24T14:59:54;15.63;;;9.97;;